Time;durP1;ratioP1;P1;durP2;ratioP2;P2;SDS_P1;SDS_P2;PMS_P1;PMS_P2;Temp;Humidity;BMP_temperature;BMP_pressure;BME280_temperature;BME280_humidity;BME280_pressure;Samples;Min_cycle;Max_cycle;Signal;HPM_P1;HPM_P2
2023/07/30 00:01:00;;;;;;;4.90;4.60;;;20.40;99.90;;;;;;4976267;28;20969;-86
2023/07/30 00:03:30;;;;;;;5.23;4.83;;;20.40;99.90;;;;;;4975995;28;20494;-83
2023/07/30 00:05:57;;;;;;;5.77;5.27;;;20.40;99.90;;;;;;4974656;28;20467;-85
2023/07/30 00:08:24;;;;;;;4.80;4.50;;;20.40;99.90;;;;;;4967239;28;20565;-86
2023/07/30 00:10:51;;;;;;;4.97;4.60;;;20.40;99.90;;;;;;4975423;28;20498;-86
2023/07/30 00:13:21;;;;;;;5.57;5.17;;;20.40;99.90;;;;;;4975814;28;20495;-82
2023/07/30 00:15:50;;;;;;;5.40;5.00;;;20.30;99.90;;;;;;4974959;28;20490;-86
2023/07/30 00:18:18;;;;;;;4.93;4.53;;;20.30;99.90;;;;;;4975246;28;20565;-86
2023/07/30 00:20:45;;;;;;;4.67;4.37;;;20.40;99.90;;;;;;4975137;28;20509;-86
2023/07/30 00:23:12;;;;;;;5.30;4.83;;;20.30;99.90;;;;;;4975465;28;20467;-82
2023/07/30 00:25:39;;;;;;;5.03;4.67;;;20.30;99.90;;;;;;4964419;28;20538;-86
2023/07/30 00:28:06;;;;;;;5.33;4.43;;;20.30;99.90;;;;;;4974391;28;20534;-82
2023/07/30 00:30:33;;;;;;;4.37;4.07;;;20.30;99.90;;;;;;4975910;28;20471;-82
2023/07/30 00:33:01;;;;;;;4.93;4.60;;;20.20;99.90;;;;;;4974800;28;20463;-82
2023/07/30 00:35:31;;;;;;;4.70;4.40;;;20.30;99.90;;;;;;4967209;28;20489;-83
2023/07/30 00:37:58;;;;;;;4.87;4.47;;;20.20;99.90;;;;;;4974580;28;20491;-82
2023/07/30 00:40:27;;;;;;;5.27;4.80;;;20.20;99.90;;;;;;4975602;28;20483;-83
2023/07/30 00:42:53;;;;;;;6.07;5.67;;;20.20;99.90;;;;;;4974186;28;20529;-83
2023/07/30 00:45:21;;;;;;;4.23;3.93;;;20.20;99.90;;;;;;4975049;28;20505;-87
2023/07/30 00:47:48;;;;;;;4.10;3.80;;;20.20;99.90;;;;;;4964418;28;20550;-82
2023/07/30 00:50:18;;;;;;;4.87;4.43;;;20.20;99.90;;;;;;4974921;28;20470;-83
2023/07/30 00:52:45;;;;;;;4.47;4.17;;;20.10;99.90;;;;;;4974085;28;20996;-83
2023/07/30 00:55:12;;;;;;;4.47;4.07;;;20.10;99.90;;;;;;4974753;28;20506;-83
2023/07/30 00:57:40;;;;;;;4.53;4.13;;;20.10;99.90;;;;;;4975194;28;20562;-87
2023/07/30 01:00:09;;;;;;;3.70;3.40;;;20.10;99.90;;;;;;4974372;28;20482;-83
2023/07/30 01:02:36;;;;;;;4.50;4.20;;;20.10;99.90;;;;;;4975069;28;20470;-83
2023/07/30 01:05:04;;;;;;;5.00;4.70;;;20.00;99.90;;;;;;4974663;28;21048;-86
2023/07/30 01:07:32;;;;;;;4.40;4.00;;;20.00;99.90;;;;;;4975186;28;20471;-86
2023/07/30 01:10:00;;;;;;;4.90;4.47;;;20.00;99.90;;;;;;4973076;28;20486;-83
2023/07/30 01:12:28;;;;;;;4.13;3.80;;;20.00;99.90;;;;;;4974184;28;20957;-86
2023/07/30 01:14:57;;;;;;;5.10;4.20;;;20.00;99.90;;;;;;4974100;28;20554;-84
2023/07/30 01:17:25;;;;;;;4.17;3.87;;;20.00;99.90;;;;;;4974512;28;20477;-83
2023/07/30 01:19:54;;;;;;;6.20;4.70;;;19.90;99.90;;;;;;4973974;28;20532;-83
2023/07/30 01:22:23;;;;;;;5.13;4.73;;;19.90;99.90;;;;;;4973905;28;20475;-82
2023/07/30 01:24:51;;;;;;;5.23;4.87;;;19.90;99.90;;;;;;4973896;28;20475;-83
2023/07/30 01:27:26;;;;;;;4.53;4.13;;;19.90;99.90;;;;;;4974542;28;20474;-83
2023/07/30 01:29:56;;;;;;;5.17;4.77;;;19.90;99.90;;;;;;4977425;28;20802;-86
2023/07/30 01:32:27;;;;;;;4.10;3.80;;;19.80;99.90;;;;;;4978532;28;20983;-86
2023/07/30 01:34:55;;;;;;;4.63;4.33;;;19.80;99.90;;;;;;4977906;28;20474;-83
2023/07/30 01:37:24;;;;;;;4.60;4.20;;;19.80;99.90;;;;;;4978217;28;20470;-82
2023/07/30 01:39:52;;;;;;;4.43;4.03;;;19.80;99.90;;;;;;4977677;28;20480;-83
2023/07/30 01:42:19;;;;;;;4.20;3.80;;;19.80;99.90;;;;;;4978362;28;20572;-82
2023/07/30 01:44:48;;;;;;;4.23;3.83;;;19.80;99.90;;;;;;4978410;28;20478;-82
2023/07/30 01:47:15;;;;;;;4.10;3.70;;;19.80;99.90;;;;;;4978290;28;20474;-82
2023/07/30 01:49:42;;;;;;;4.30;3.87;;;19.70;99.90;;;;;;4978678;28;20470;-86
2023/07/30 01:52:09;;;;;;;4.13;3.83;;;19.70;99.90;;;;;;4978039;28;20522;-82
2023/07/30 01:54:37;;;;;;;4.50;4.10;;;19.70;99.90;;;;;;4979391;28;20495;-82
2023/07/30 01:57:05;;;;;;;4.50;4.10;;;19.70;99.90;;;;;;4978767;28;20474;-82
2023/07/30 01:59:32;;;;;;;4.80;4.50;;;19.70;99.90;;;;;;4978676;28;20953;-82
2023/07/30 02:01:58;;;;;;;3.93;3.63;;;19.70;99.90;;;;;;4977706;28;20478;-82
2023/07/30 02:04:26;;;;;;;4.50;4.20;;;19.70;99.90;;;;;;4978593;28;20603;-86
2023/07/30 02:06:53;;;;;;;4.73;4.43;;;19.60;99.90;;;;;;4979302;28;21004;-86
2023/07/30 02:09:21;;;;;;;4.30;4.00;;;19.60;99.90;;;;;;4979981;28;20533;-85
2023/07/30 02:11:49;;;;;;;4.97;4.53;;;19.60;99.90;;;;;;4983387;28;20490;-82
2023/07/30 02:14:16;;;;;;;4.90;4.50;;;19.60;99.90;;;;;;4977818;28;20509;-82
2023/07/30 02:16:43;;;;;;;4.97;4.47;;;19.60;99.90;;;;;;4978441;28;20553;-82
2023/07/30 02:19:10;;;;;;;4.23;3.93;;;19.60;99.90;;;;;;4977907;28;20972;-86
2023/07/30 02:21:38;;;;;;;5.30;4.90;;;19.50;99.90;;;;;;4978463;28;20501;-86
2023/07/30 02:24:09;;;;;;;5.00;4.50;;;19.50;99.90;;;;;;4980301;28;20555;-86
2023/07/30 02:26:36;;;;;;;5.07;4.67;;;19.50;99.90;;;;;;4984579;28;20474;-82
2023/07/30 02:29:18;;;;;;;4.30;4.00;;;19.50;99.90;;;;;;4967586;28;20545;-81
2023/07/30 02:31:45;;;;;;;5.57;5.17;;;19.50;99.90;;;;;;4976832;28;20562;-81
2023/07/30 02:34:12;;;;;;;5.13;4.83;;;19.50;99.90;;;;;;4976502;28;20904;-81
2023/07/30 02:36:39;;;;;;;5.33;4.93;;;19.40;99.90;;;;;;4977056;28;20521;-85
2023/07/30 02:39:06;;;;;;;5.77;5.37;;;19.40;99.90;;;;;;4975902;28;20534;-85
2023/07/30 02:41:33;;;;;;;6.30;5.80;;;19.40;99.90;;;;;;4976667;28;20534;-85
2023/07/30 02:44:00;;;;;;;6.00;5.47;;;19.40;99.90;;;;;;4976493;28;20937;-85
2023/07/30 02:46:28;;;;;;;5.23;4.83;;;19.40;99.90;;;;;;4976134;28;20459;-82
2023/07/30 02:48:55;;;;;;;5.10;4.70;;;19.40;99.90;;;;;;4976450;28;20538;-81
2023/07/30 02:51:22;;;;;;;5.03;4.60;;;19.40;99.90;;;;;;4976003;28;20510;-85
2023/07/30 02:53:53;;;;;;;6.77;6.27;;;19.40;99.90;;;;;;4976680;28;20502;-85
2023/07/30 02:56:20;;;;;;;7.37;5.30;;;19.40;99.90;;;;;;4976162;28;20475;-85
2023/07/30 02:58:47;;;;;;;5.17;4.77;;;19.30;99.90;;;;;;4965978;28;20499;-82
2023/07/30 03:01:14;;;;;;;5.10;4.70;;;19.30;99.90;;;;;;4975753;28;20494;-82
2023/07/30 03:03:42;;;;;;;4.90;4.50;;;19.30;99.90;;;;;;4976304;28;20466;-85
2023/07/30 03:06:09;;;;;;;4.80;4.50;;;19.30;99.90;;;;;;4972049;28;20525;-82
2023/07/30 03:08:36;;;;;;;5.50;5.10;;;19.30;99.90;;;;;;4975448;28;20533;-81
2023/07/30 03:11:04;;;;;;;5.43;5.03;;;19.30;99.90;;;;;;4976046;28;20871;-81
2023/07/30 03:13:30;;;;;;;4.47;4.17;;;19.30;99.90;;;;;;4975623;28;20466;-85
2023/07/30 03:15:57;;;;;;;5.60;5.20;;;19.30;99.90;;;;;;4976199;28;20574;-81
2023/07/30 03:18:24;;;;;;;5.67;5.23;;;19.30;99.90;;;;;;4975441;28;20865;-85
2023/07/30 03:20:58;;;;;;;5.40;4.93;;;19.30;99.90;;;;;;4976142;28;20790;-85
2023/07/30 03:23:25;;;;;;;4.70;4.40;;;19.30;99.90;;;;;;4975544;28;20853;-82
2023/07/30 03:25:52;;;;;;;5.03;4.63;;;19.30;99.90;;;;;;4975692;28;20517;-82
2023/07/30 03:28:19;;;;;;;5.60;5.20;;;19.30;99.90;;;;;;4975307;28;20619;-81
2023/07/30 03:30:46;;;;;;;3.37;3.17;;;19.20;99.90;;;;;;4976080;28;20485;-82
2023/07/30 03:33:19;;;;;;;5.00;4.60;;;19.30;99.90;;;;;;4975501;28;20471;-81
2023/07/30 03:35:46;;;;;;;4.67;4.37;;;19.30;99.90;;;;;;4975429;28;20467;-85
2023/07/30 03:38:15;;;;;;;4.07;3.87;;;19.30;99.90;;;;;;4975731;28;20474;-82
2023/07/30 03:40:43;;;;;;;4.10;3.80;;;19.30;99.90;;;;;;4974114;28;20486;-82
2023/07/30 03:43:10;;;;;;;4.67;4.30;;;19.30;99.90;;;;;;4975604;28;20510;-81
2023/07/30 03:45:37;;;;;;;4.63;4.33;;;19.30;99.90;;;;;;4974831;28;20542;-82
2023/07/30 03:48:04;;;;;;;4.00;3.80;;;19.30;99.90;;;;;;4975342;28;20957;-81
2023/07/30 03:50:31;;;;;;;4.40;4.10;;;19.30;99.90;;;;;;4974635;28;20578;-82
2023/07/30 03:52:58;;;;;;;5.13;4.40;;;19.30;99.90;;;;;;4975218;28;21001;-86
2023/07/30 03:55:26;;;;;;;4.73;4.43;;;19.30;99.90;;;;;;4974009;28;20562;-86
2023/07/30 03:57:53;;;;;;;5.03;4.67;;;19.30;99.90;;;;;;4975468;28;20473;-85
2023/07/30 04:00:20;;;;;;;5.57;5.17;;;19.30;99.90;;;;;;4975271;28;20498;-85
2023/07/30 04:02:47;;;;;;;5.30;4.80;;;19.30;99.90;;;;;;4974047;28;20471;-81
2023/07/30 04:05:15;;;;;;;4.50;4.10;;;19.20;99.90;;;;;;4975199;28;20471;-81
2023/07/30 04:07:42;;;;;;;4.80;4.40;;;19.30;99.90;;;;;;4974042;28;20490;-82
2023/07/30 04:10:09;;;;;;;5.33;4.97;;;19.30;99.90;;;;;;4974870;28;20467;-82
2023/07/30 04:12:38;;;;;;;6.40;5.80;;;19.30;99.90;;;;;;4974289;28;20471;-82
2023/07/30 04:15:06;;;;;;;5.37;5.07;;;19.30;99.90;;;;;;4975099;28;20462;-82
2023/07/30 04:17:33;;;;;;;5.70;5.30;;;19.30;99.90;;;;;;4974279;28;20558;-85
2023/07/30 04:20:04;;;;;;;5.33;4.93;;;19.30;99.90;;;;;;4975868;28;20478;-85
2023/07/30 04:22:31;;;;;;;5.30;4.90;;;19.30;99.90;;;;;;4975149;28;20477;-85
2023/07/30 04:24:58;;;;;;;5.73;5.13;;;19.40;99.90;;;;;;4974888;28;20467;-82
2023/07/30 04:27:27;;;;;;;5.00;4.60;;;19.40;99.90;;;;;;4975288;28;20473;-82
2023/07/30 04:30:02;;;;;;;4.93;4.57;;;19.40;99.90;;;;;;4974351;28;20491;-82
2023/07/30 04:32:30;;;;;;;4.73;4.43;;;19.40;99.90;;;;;;4975223;28;20473;-85
2023/07/30 04:34:57;;;;;;;4.97;4.67;;;19.40;99.90;;;;;;4974053;28;20471;-85
2023/07/30 04:37:25;;;;;;;5.90;5.40;;;19.50;99.90;;;;;;4974931;28;20470;-82
2023/07/30 04:39:53;;;;;;;4.30;4.00;;;19.50;99.90;;;;;;4974708;28;20475;-83
2023/07/30 04:42:23;;;;;;;5.53;5.03;;;19.50;99.90;;;;;;4975147;28;20547;-86
2023/07/30 04:44:50;;;;;;;6.80;6.20;;;19.50;99.90;;;;;;4964975;28;20471;-82
2023/07/30 04:47:26;;;;;;;6.80;6.20;;;19.50;99.90;;;;;;4975823;28;20471;-85
2023/07/30 04:49:54;;;;;;;6.37;5.70;;;19.60;99.90;;;;;;4974836;28;20482;-83
2023/07/30 04:52:21;;;;;;;7.00;6.23;;;19.60;99.90;;;;;;4975672;28;20525;-85
2023/07/30 04:54:54;;;;;;;5.80;5.40;;;19.60;99.90;;;;;;4971496;28;20478;-86
2023/07/30 04:57:25;;;;;;;5.67;5.27;;;19.60;99.90;;;;;;4975057;28;20530;-85
2023/07/30 04:59:52;;;;;;;4.90;4.60;;;19.60;99.90;;;;;;4973724;28;20482;-86
2023/07/30 05:02:21;;;;;;;4.97;4.63;;;19.60;99.90;;;;;;4975466;28;20471;-86
2023/07/30 05:04:56;;;;;;;6.57;6.07;;;19.70;99.90;;;;;;4979767;28;20956;-85
2023/07/30 05:07:26;;;;;;;5.23;4.90;;;19.70;99.90;;;;;;4980437;28;20972;-82
2023/07/30 05:09:56;;;;;;;5.17;4.77;;;19.70;99.90;;;;;;4977422;28;20501;-82
2023/07/30 05:12:23;;;;;;;5.60;5.23;;;19.70;99.90;;;;;;4968519;28;20478;-82
2023/07/30 05:14:50;;;;;;;3.80;3.57;;;19.70;99.90;;;;;;4977335;28;20475;-81
2023/07/30 05:17:21;;;;;;;5.57;5.17;;;19.80;99.90;;;;;;4970001;28;20557;-85
2023/07/30 05:19:56;;;;;;;5.27;4.97;;;19.80;99.90;;;;;;4968872;28;20869;-83
2023/07/30 05:22:25;;;;;;;4.80;4.50;;;19.90;99.90;;;;;;4966501;28;20548;-83
2023/07/30 05:24:52;;;;;;;6.00;5.53;;;19.90;99.90;;;;;;4967880;28;20521;-84
2023/07/30 05:27:31;;;;;;;4.97;4.57;;;19.90;99.90;;;;;;4967835;28;20493;-87
2023/07/30 05:30:01;;;;;;;4.37;4.07;;;20.00;99.90;;;;;;4977307;28;20474;-82
2023/07/30 05:32:33;;;;;;;5.60;5.10;;;20.10;99.90;;;;;;4959576;28;20470;-86
2023/07/30 05:35:01;;;;;;;4.90;4.53;;;20.20;99.90;;;;;;4966205;28;20482;-85
2023/07/30 05:37:29;;;;;;;5.27;4.97;;;20.30;99.90;;;;;;4977888;28;20481;-86
2023/07/30 05:39:56;;;;;;;4.00;3.77;;;20.30;99.90;;;;;;4977785;28;20841;-82
2023/07/30 05:42:27;;;;;;;4.90;4.60;;;20.40;99.90;;;;;;4967967;28;20529;-82
2023/07/30 05:44:59;;;;;;;4.07;3.83;;;20.40;99.90;;;;;;4969321;28;20482;-86
2023/07/30 05:48:08;;;;;;;4.40;4.10;;;20.50;99.90;;;;;;4976790;28;20466;-82
2023/07/30 05:50:46;;;;;;;4.17;3.90;;;20.50;99.90;;;;;;4970776;28;20473;-86
2023/07/30 05:53:13;;;;;;;4.63;4.33;;;20.60;99.90;;;;;;4977850;28;20498;-82
2023/07/30 05:55:40;;;;;;;4.67;4.27;;;20.60;99.90;;;;;;4976729;28;20968;-86
2023/07/30 05:58:08;;;;;;;3.90;3.60;;;20.60;99.90;;;;;;4977516;28;20494;-86
2023/07/30 06:00:38;;;;;;;4.20;4.00;;;20.60;99.90;;;;;;4977182;28;20850;-82
2023/07/30 06:03:06;;;;;;;3.90;3.70;;;20.70;99.90;;;;;;4977875;28;20470;-82
2023/07/30 06:05:35;;;;;;;4.20;3.90;;;20.80;99.90;;;;;;4976766;28;20503;-87
2023/07/30 06:08:14;;;;;;;4.03;3.83;;;20.80;99.90;;;;;;4967417;28;20493;-86
2023/07/30 06:10:50;;;;;;;4.20;3.90;;;20.90;99.90;;;;;;4975498;28;20486;-85
2023/07/30 06:13:17;;;;;;;4.30;4.00;;;20.90;99.90;;;;;;4968621;28;20474;-86
2023/07/30 06:15:46;;;;;;;4.20;4.00;;;20.90;99.90;;;;;;4975736;28;20510;-82
2023/07/30 06:18:13;;;;;;;3.37;3.17;;;21.00;99.90;;;;;;4977221;28;20558;-85
2023/07/30 06:20:40;;;;;;;4.00;3.70;;;21.00;99.90;;;;;;4975180;28;20475;-86
2023/07/30 06:23:09;;;;;;;3.60;3.40;;;21.00;99.90;;;;;;4976401;28;20471;-86
2023/07/30 06:25:41;;;;;;;4.50;4.13;;;21.10;99.90;;;;;;4976405;28;20964;-83
2023/07/30 06:28:09;;;;;;;4.07;3.80;;;21.10;99.90;;;;;;4976318;28;20469;-83
2023/07/30 06:30:39;;;;;;;3.90;3.60;;;21.20;99.90;;;;;;4974546;28;20551;-81
2023/07/30 06:33:06;;;;;;;4.40;4.10;;;21.30;99.90;;;;;;4976253;28;20474;-81
2023/07/30 06:35:33;;;;;;;4.70;4.40;;;21.30;99.90;;;;;;4977148;28;20485;-85
2023/07/30 06:38:00;;;;;;;4.27;3.97;;;21.40;99.90;;;;;;4977204;28;20558;-86
2023/07/30 06:40:29;;;;;;;4.07;3.77;;;21.50;99.90;;;;;;4977101;28;20862;-82
2023/07/30 06:42:56;;;;;;;3.97;3.67;;;21.60;99.90;;;;;;4976686;28;20623;-82
2023/07/30 06:45:23;;;;;;;4.03;3.77;;;21.70;99.90;;;;;;4976499;28;20475;-86
2023/07/30 06:47:50;;;;;;;3.57;3.37;;;21.80;99.90;;;;;;4975975;28;20471;-81
2023/07/30 06:50:17;;;;;;;4.40;4.07;;;21.90;99.90;;;;;;4977057;28;20475;-86
2023/07/30 06:52:48;;;;;;;3.60;3.30;;;21.90;99.90;;;;;;4976806;28;20570;-80
2023/07/30 06:55:15;;;;;;;3.37;3.00;;;22.00;99.90;;;;;;4977722;28;20871;-86
2023/07/30 06:57:44;;;;;;;3.57;3.37;;;22.00;99.90;;;;;;4976439;28;20863;-83
2023/07/30 07:00:18;;;;;;;4.50;3.60;;;22.00;99.90;;;;;;4978049;28;20554;-87
2023/07/30 07:02:45;;;;;;;3.30;3.10;;;22.10;99.90;;;;;;4977506;28;20513;-82
2023/07/30 07:05:12;;;;;;;3.70;3.40;;;22.10;99.90;;;;;;4976960;28;20534;-82
2023/07/30 07:07:42;;;;;;;3.80;3.60;;;22.20;99.90;;;;;;4976756;28;20498;-88
2023/07/30 07:10:10;;;;;;;3.53;3.23;;;22.30;99.90;;;;;;4977993;28;20774;-88
2023/07/30 07:12:37;;;;;;;3.13;2.93;;;22.40;99.90;;;;;;4975769;28;20557;-83
2023/07/30 07:15:07;;;;;;;3.10;2.90;;;22.50;99.90;;;;;;4967971;28;20482;-83
2023/07/30 07:17:37;;;;;;;4.00;3.47;;;22.60;99.90;;;;;;4977335;28;20506;-87
2023/07/30 07:20:06;;;;;;;3.67;3.37;;;22.70;99.90;;;;;;4975388;28;20547;-87
2023/07/30 07:22:33;;;;;;;3.40;3.20;;;22.80;99.90;;;;;;4980453;28;20969;-86
2023/07/30 07:25:00;;;;;;;4.20;3.90;;;22.90;99.90;;;;;;4979515;28;20502;-87
2023/07/30 07:27:27;;;;;;;3.13;2.93;;;22.90;99.90;;;;;;4976326;28;20562;-88
2023/07/30 07:29:54;;;;;;;3.50;3.30;;;23.00;99.90;;;;;;4976509;28;20550;-88
2023/07/30 07:32:23;;;;;;;4.17;3.77;;;23.10;99.90;;;;;;4977341;28;20566;-88
2023/07/30 07:37:33;;;;;;;4.30;3.03;;;23.30;99.90;;;;;;4963721;28;20545;-83
2023/07/30 07:40:00;;;;;;;3.43;3.23;;;23.50;99.90;;;;;;4976103;28;20471;-87
2023/07/30 07:42:27;;;;;;;3.60;3.30;;;23.50;99.90;;;;;;4976485;28;20883;-83
2023/07/30 07:44:56;;;;;;;3.13;2.93;;;23.60;99.90;;;;;;4975147;28;20536;-87
2023/07/30 07:47:25;;;;;;;3.50;3.30;;;23.70;99.90;;;;;;4975887;28;20510;-83
2023/07/30 07:49:55;;;;;;;4.27;3.93;;;23.80;99.90;;;;;;4975895;28;20487;-88
2023/07/30 07:52:22;;;;;;;4.30;3.93;;;23.80;99.90;;;;;;4975762;28;20561;-87
2023/07/30 07:54:49;;;;;;;3.70;3.50;;;23.80;99.90;;;;;;4975641;28;20977;-87
2023/07/30 07:57:19;;;;;;;4.03;3.73;;;23.90;99.90;;;;;;4976455;28;20497;-83
2023/07/30 07:59:46;;;;;;;3.90;3.60;;;23.90;99.90;;;;;;4975430;28;20557;-83
2023/07/30 08:02:17;;;;;;;3.63;3.40;;;24.00;99.90;;;;;;4975667;28;20484;-83
2023/07/30 08:05:06;;;;;;;4.63;4.23;;;24.10;99.90;;;;;;4975629;28;20471;-82
2023/07/30 08:07:33;;;;;;;3.57;3.37;;;24.20;99.90;;;;;;4976154;28;20862;-84
2023/07/30 08:10:00;;;;;;;4.20;4.00;;;24.20;99.90;;;;;;4975667;28;20466;-87
2023/07/30 08:12:27;;;;;;;4.27;3.87;;;24.20;99.90;;;;;;4976800;28;21011;-87
2023/07/30 08:14:58;;;;;;;3.67;3.37;;;24.20;99.90;;;;;;4975807;28;20498;-88
2023/07/30 08:17:29;;;;;;;4.40;4.00;;;24.10;99.90;;;;;;4975235;28;20463;-83
2023/07/30 08:19:57;;;;;;;3.90;3.60;;;24.10;99.90;;;;;;4974699;28;20758;-83
2023/07/30 08:22:25;;;;;;;3.60;3.40;;;24.00;99.90;;;;;;4975286;28;20479;-88
2023/07/30 08:24:52;;;;;;;6.03;4.20;;;24.00;99.90;;;;;;4974307;28;20482;-88
2023/07/30 08:27:22;;;;;;;4.17;3.90;;;24.00;99.90;;;;;;4974715;28;20530;-88
2023/07/30 08:29:52;;;;;;;4.47;4.17;;;24.00;99.90;;;;;;4974477;28;20851;-83
2023/07/30 08:32:19;;;;;;;3.60;3.30;;;24.00;99.90;;;;;;4975080;28;20486;-88
2023/07/30 08:34:47;;;;;;;4.10;3.70;;;23.90;99.90;;;;;;4974715;28;20467;-88
2023/07/30 08:37:15;;;;;;;6.50;3.57;;;23.90;99.90;;;;;;4963171;28;20463;-88
2023/07/30 08:39:42;;;;;;;4.20;3.90;;;23.90;99.90;;;;;;4974739;28;20625;-88
2023/07/30 08:42:09;;;;;;;4.47;4.17;;;23.90;99.90;;;;;;4974203;28;20469;-84
2023/07/30 08:44:36;;;;;;;3.20;3.00;;;23.90;99.90;;;;;;4964784;28;20487;-82
2023/07/30 08:47:04;;;;;;;2.70;2.60;;;23.90;99.90;;;;;;4974478;28;20459;-82
2023/07/30 08:49:33;;;;;;;4.53;4.13;;;23.90;99.90;;;;;;4973933;28;20463;-83
2023/07/30 08:52:01;;;;;;;3.90;3.60;;;23.90;99.90;;;;;;4974891;28;20471;-82
2023/07/30 08:54:32;;;;;;;3.53;3.23;;;23.90;99.90;;;;;;4974168;28;20538;-82
2023/07/30 08:57:01;;;;;;;3.23;3.03;;;23.90;99.90;;;;;;4975232;28;20472;-87
2023/07/30 08:59:32;;;;;;;3.00;2.80;;;23.90;99.90;;;;;;4974570;28;20447;-88
2023/07/30 09:02:00;;;;;;;3.53;3.33;;;23.90;99.90;;;;;;4974583;28;20523;-82
2023/07/30 09:04:31;;;;;;;3.37;3.10;;;24.00;99.90;;;;;;4974317;28;20482;-88
2023/07/30 09:06:57;;;;;;;2.60;2.50;;;24.10;99.90;;;;;;4974866;28;20570;-88
2023/07/30 09:09:25;;;;;;;3.13;2.93;;;24.10;99.90;;;;;;4966210;28;20489;-83
2023/07/30 09:11:54;;;;;;;2.90;2.70;;;24.20;99.90;;;;;;4974744;28;20518;-83
2023/07/30 09:14:21;;;;;;;3.30;3.00;;;24.30;99.90;;;;;;4973761;28;20479;-84
2023/07/30 09:16:52;;;;;;;2.57;2.47;;;24.30;99.90;;;;;;4974416;28;20485;-83
2023/07/30 09:19:22;;;;;;;2.53;2.33;;;24.40;99.90;;;;;;4973982;28;20540;-83
2023/07/30 09:21:50;;;;;;;3.43;2.83;;;24.40;99.90;;;;;;4974220;28;20976;-83
2023/07/30 09:24:23;;;;;;;3.37;3.17;;;24.40;99.90;;;;;;4973867;28;20471;-83
2023/07/30 09:26:50;;;;;;;2.37;2.20;;;24.50;99.90;;;;;;4974230;28;20494;-83
2023/07/30 09:29:27;;;;;;;3.10;2.90;;;24.50;99.90;;;;;;4963659;28;20570;-84
2023/07/30 09:32:01;;;;;;;3.27;3.07;;;24.50;99.90;;;;;;4965376;28;20542;-88
2023/07/30 09:34:33;;;;;;;3.17;2.97;;;24.50;99.90;;;;;;4963822;28;20850;-83
2023/07/30 09:37:00;;;;;;;3.43;3.13;;;24.40;99.90;;;;;;4974517;28;20526;-82
2023/07/30 09:39:28;;;;;;;3.80;3.50;;;24.40;99.90;;;;;;4973543;28;20470;-84
2023/07/30 09:42:03;;;;;;;3.63;3.33;;;24.30;99.90;;;;;;4974323;28;20521;-83
2023/07/30 09:44:34;;;;;;;4.40;3.70;;;24.30;99.90;;;;;;4973349;28;20512;-83
2023/07/30 09:47:04;;;;;;;4.20;3.90;;;24.30;99.90;;;;;;4974140;28;20466;-82
2023/07/30 09:49:32;;;;;;;3.67;3.40;;;24.20;99.90;;;;;;4975446;28;20486;-88
2023/07/30 09:51:59;;;;;;;3.40;3.10;;;24.20;99.90;;;;;;4978734;28;20553;-87
2023/07/30 09:54:27;;;;;;;5.13;3.03;;;24.10;99.90;;;;;;4978142;28;20521;-87
2023/07/30 09:56:54;;;;;;;3.20;2.90;;;24.10;99.90;;;;;;4978259;28;20466;-87
2023/07/30 09:59:20;;;;;;;3.60;3.20;;;24.00;99.90;;;;;;4982216;28;20554;-88
2023/07/30 10:01:50;;;;;;;3.70;3.40;;;23.90;99.90;;;;;;4981545;28;20832;-87
2023/07/30 10:04:23;;;;;;;5.00;3.60;;;24.00;99.90;;;;;;4985657;28;21023;-87
2023/07/30 10:06:56;;;;;;;3.27;3.07;;;23.90;99.90;;;;;;4979501;28;20558;-83
2023/07/30 10:09:34;;;;;;;3.00;2.60;;;24.00;99.90;;;;;;4979988;28;20542;-88
2023/07/30 10:12:03;;;;;;;3.40;3.10;;;24.00;99.90;;;;;;4983761;28;20482;-82
2023/07/30 10:14:33;;;;;;;3.13;2.93;;;24.00;99.90;;;;;;4982476;28;20470;-87
2023/07/30 10:17:02;;;;;;;2.63;2.50;;;24.00;99.90;;;;;;4984025;28;20478;-88
2023/07/30 10:19:31;;;;;;;3.20;2.70;;;24.10;99.90;;;;;;4978690;28;20553;-87
2023/07/30 10:22:21;;;;;;;2.87;2.67;;;24.10;99.90;;;;;;4978026;28;20466;-83
2023/07/30 10:24:59;;;;;;;3.10;2.90;;;24.20;99.90;;;;;;4975321;28;20496;-84
2023/07/30 10:27:39;;;;;;;3.00;2.70;;;24.20;99.90;;;;;;4972908;28;20522;-87
2023/07/30 10:30:11;;;;;;;3.37;3.07;;;24.30;99.90;;;;;;4985590;28;20462;-87
2023/07/30 10:33:11;;;;;;;;;;;;;;;;;;;;;
2023/07/30 10:35:56;;;;;;;2.77;2.57;;;24.30;99.90;;;;;;4978552;28;20504;-87
2023/07/30 10:38:29;;;;;;;2.80;2.60;;;24.30;99.90;;;;;;4971432;28;20478;-82
2023/07/30 10:41:05;;;;;;;3.13;2.93;;;24.30;99.90;;;;;;4979350;28;20458;-88
2023/07/30 10:43:37;;;;;;;4.03;3.73;;;24.40;99.90;;;;;;4984157;28;20490;-84
2023/07/30 10:46:04;;;;;;;6.03;5.53;;;24.40;99.90;;;;;;4981016;28;21019;-89
2023/07/30 10:48:34;;;;;;;7.87;6.83;;;24.40;99.90;;;;;;4979063;28;20530;-87
2023/07/30 10:51:08;;;;;;;9.27;8.37;;;24.50;99.90;;;;;;4979762;28;20493;-88
2023/07/30 10:53:36;;;;;;;9.40;8.10;;;24.50;99.90;;;;;;4978682;28;20455;-89
2023/07/30 10:56:04;;;;;;;8.70;8.00;;;24.50;99.90;;;;;;4967482;28;20577;-83
2023/07/30 10:58:35;;;;;;;9.03;8.23;;;24.50;99.90;;;;;;4975343;28;20491;-88
2023/07/30 11:01:03;;;;;;;8.63;7.83;;;24.50;99.90;;;;;;4976534;28;20494;-89
2023/07/30 11:03:35;;;;;;;11.03;8.10;;;24.50;99.90;;;;;;4961151;28;20487;-88
2023/07/30 11:06:03;;;;;;;7.90;7.23;;;24.50;99.90;;;;;;4977252;28;20471;-88
2023/07/30 11:08:34;;;;;;;7.30;6.70;;;24.50;99.90;;;;;;4975941;28;20549;-81
2023/07/30 11:11:03;;;;;;;7.40;6.80;;;24.50;99.90;;;;;;4976109;28;20482;-82
2023/07/30 11:13:29;;;;;;;6.43;5.93;;;24.50;99.90;;;;;;4962843;28;20545;-82
2023/07/30 11:15:57;;;;;;;7.17;6.47;;;24.50;99.90;;;;;;4975184;28;20513;-88
2023/07/30 11:18:24;;;;;;;6.37;5.77;;;24.50;99.90;;;;;;4977371;28;20501;-87
2023/07/30 11:20:54;;;;;;;6.43;5.83;;;24.50;99.90;;;;;;4979043;28;20530;-83
2023/07/30 11:23:23;;;;;;;5.70;5.20;;;24.50;99.90;;;;;;4977119;28;20482;-89
2023/07/30 11:25:52;;;;;;;6.30;5.43;;;24.50;99.90;;;;;;4976081;28;20485;-82
2023/07/30 11:28:39;;;;;;;5.80;5.37;;;24.50;99.90;;;;;;4949045;28;20518;-88
2023/07/30 11:31:08;;;;;;;5.80;5.30;;;24.50;99.90;;;;;;4978801;28;20828;-82
2023/07/30 11:33:37;;;;;;;7.00;5.30;;;24.60;99.90;;;;;;4975845;28;20473;-82
2023/07/30 11:36:08;;;;;;;5.30;4.90;;;24.50;99.90;;;;;;4972892;28;20479;-88
2023/07/30 11:38:43;;;;;;;5.43;4.97;;;24.50;99.90;;;;;;4976613;28;20454;-89
2023/07/30 11:41:13;;;;;;;4.40;4.10;;;24.60;99.90;;;;;;4974545;28;20466;-82
2023/07/30 11:43:44;;;;;;;5.00;4.60;;;24.60;99.90;;;;;;4975258;28;20968;-88
2023/07/30 11:46:14;;;;;;;3.90;3.50;;;24.60;99.90;;;;;;4975747;28;20546;-87
2023/07/30 11:48:42;;;;;;;5.00;4.60;;;24.60;99.90;;;;;;4975509;28;20482;-83
2023/07/30 11:51:22;;;;;;;4.40;4.00;;;24.60;99.90;;;;;;4975227;28;20561;-89
2023/07/30 11:53:53;;;;;;;4.53;4.13;;;24.60;99.90;;;;;;4976614;28;20542;-87
2023/07/30 11:56:25;;;;;;;4.00;3.70;;;24.70;99.90;;;;;;4975622;28;20509;-88
2023/07/30 11:58:55;;;;;;;5.63;4.17;;;24.70;99.90;;;;;;4976297;28;20960;-83
2023/07/30 12:01:23;;;;;;;4.00;3.70;;;24.60;99.90;;;;;;4974484;28;20471;-87
2023/07/30 12:03:51;;;;;;;3.90;3.13;;;24.60;99.90;;;;;;4961726;28;20533;-83
2023/07/30 12:06:19;;;;;;;4.27;3.97;;;24.60;99.90;;;;;;4974616;28;20478;-83
2023/07/30 12:08:52;;;;;;;4.23;3.17;;;24.60;99.90;;;;;;4975295;28;20471;-82
2023/07/30 12:11:20;;;;;;;3.20;2.90;;;24.60;99.90;;;;;;4974690;28;20503;-82
2023/07/30 12:13:50;;;;;;;3.50;3.20;;;24.60;99.90;;;;;;4974494;28;20957;-87
2023/07/30 12:16:17;;;;;;;3.50;3.20;;;24.60;99.90;;;;;;4974537;28;20506;-87
2023/07/30 12:18:45;;;;;;;4.43;2.93;;;24.60;99.90;;;;;;4975119;28;20587;-83
2023/07/30 12:21:13;;;;;;;3.87;3.57;;;24.50;99.90;;;;;;4974869;28;20481;-82
2023/07/30 12:23:41;;;;;;;3.20;3.00;;;24.50;99.90;;;;;;4961544;28;20471;-88
2023/07/30 12:26:26;;;;;;;3.30;2.87;;;24.50;99.90;;;;;;4974520;28;20479;-88
2023/07/30 12:28:53;;;;;;;3.43;3.13;;;24.50;99.90;;;;;;4962396;28;21009;-87
2023/07/30 12:31:20;;;;;;;3.27;2.97;;;24.50;99.90;;;;;;4974352;28;20490;-82
2023/07/30 12:34:03;;;;;;;3.63;3.33;;;24.50;99.90;;;;;;4974315;28;20470;-87
2023/07/30 12:36:30;;;;;;;3.10;2.90;;;24.50;99.90;;;;;;4973376;28;20483;-87
2023/07/30 12:39:00;;;;;;;2.90;2.70;;;24.50;99.90;;;;;;4967041;28;20470;-83
2023/07/30 12:41:38;;;;;;;3.10;2.90;;;24.50;99.90;;;;;;4974442;28;20474;-83
2023/07/30 12:44:05;;;;;;;3.23;2.93;;;24.50;99.90;;;;;;4974579;28;20550;-83
2023/07/30 12:49:27;;;;;;;3.10;2.90;;;24.40;99.90;;;;;;4967629;28;20486;-89
2023/07/30 12:51:56;;;;;;;2.87;2.67;;;24.50;99.90;;;;;;4965847;28;20474;-82
2023/07/30 12:54:30;;;;;;;3.07;2.73;;;24.50;99.90;;;;;;4973545;28;20470;-88
2023/07/30 12:56:57;;;;;;;2.37;2.17;;;24.50;99.90;;;;;;4974331;28;20833;-89
2023/07/30 12:59:24;;;;;;;3.10;2.80;;;24.50;99.90;;;;;;4974017;28;20557;-88
2023/07/30 13:01:51;;;;;;;4.43;3.37;;;24.50;99.90;;;;;;4974621;28;20525;-81
2023/07/30 13:04:20;;;;;;;3.93;3.60;;;24.50;99.90;;;;;;4974780;28;20474;-88